createdAt,value
2023-03-06T00:02:31.205Z,505.00
2023-03-06T00:06:31.309Z,505.00
2023-03-06T00:10:31.345Z,504.00
2023-03-06T00:14:31.414Z,505.00
2023-03-06T00:18:31.391Z,504.00
2023-03-06T00:22:31.386Z,505.00
2023-03-06T00:26:31.428Z,506.00
2023-03-06T00:30:31.524Z,505.00
2023-03-06T00:34:31.587Z,505.00
2023-03-06T00:38:31.690Z,506.00
2023-03-06T00:42:31.690Z,507.00
2023-03-06T00:46:31.756Z,505.00
2023-03-06T00:50:31.833Z,506.00
2023-03-06T00:54:31.769Z,502.00
2023-03-06T00:58:31.827Z,503.00
2023-03-06T01:02:31.893Z,503.00
2023-03-06T01:06:31.727Z,509.00
2023-03-06T01:10:31.699Z,509.00
2023-03-06T01:14:31.696Z,508.00
2023-03-06T01:18:31.645Z,506.00
2023-03-06T01:22:31.640Z,509.00
2023-03-06T01:26:31.602Z,506.00
2023-03-06T01:30:31.588Z,503.00
2023-03-06T01:34:31.550Z,503.00
2023-03-06T01:38:31.529Z,502.00
2023-03-06T01:42:32.235Z,505.00
2023-03-06T01:46:31.524Z,505.00
2023-03-06T01:50:31.512Z,506.00
2023-03-06T01:54:31.500Z,506.00
2023-03-06T01:58:31.470Z,505.00
2023-03-06T02:02:31.440Z,504.00
2023-03-06T02:06:31.412Z,503.00
2023-03-06T02:10:31.367Z,506.00
2023-03-06T02:14:31.348Z,507.00
2023-03-06T02:18:31.334Z,508.00
2023-03-06T02:25:22.781Z,500.00
2023-03-06T02:29:22.753Z,500.00
2023-03-06T02:33:22.685Z,501.00
2023-03-06T02:37:22.654Z,502.00
2023-03-06T02:41:22.625Z,504.00
2023-03-06T02:45:22.609Z,505.00
2023-03-06T02:49:23.482Z,505.00
2023-03-06T02:53:22.491Z,501.00
2023-03-06T02:57:22.481Z,508.00
2023-03-06T03:01:22.467Z,500.00
2023-03-06T03:05:22.383Z,508.00
2023-03-06T03:09:22.329Z,503.00
2023-03-06T03:13:22.321Z,507.00
2023-03-06T03:17:22.310Z,501.00
2023-03-06T03:21:22.266Z,507.00
2023-03-06T03:25:22.212Z,509.00
2023-03-06T03:29:22.160Z,507.00
2023-03-06T03:33:22.149Z,506.00
2023-03-06T03:37:22.073Z,508.00
2023-03-06T03:41:22.063Z,507.00
2023-03-06T03:45:22.008Z,507.00
2023-03-06T03:49:21.980Z,512.00
2023-03-06T03:53:21.943Z,509.00
2023-03-06T03:57:21.913Z,508.00
2023-03-06T04:01:21.872Z,511.00
2023-03-06T04:05:21.940Z,511.00
2023-03-06T04:09:21.906Z,510.00
2023-03-06T04:13:21.918Z,511.00
2023-03-06T04:17:21.905Z,507.00
2023-03-06T04:21:21.940Z,515.00
2023-03-06T04:25:21.926Z,510.00
2023-03-06T04:29:21.955Z,515.00
2023-03-06T04:33:21.988Z,512.00
2023-03-06T04:37:21.988Z,515.00
2023-03-06T04:41:22.023Z,510.00
2023-03-06T04:45:22.045Z,515.00
2023-03-06T04:49:22.040Z,513.00
2023-03-06T04:53:22.053Z,511.00
2023-03-06T04:57:22.079Z,510.00
2023-03-06T05:01:22.152Z,514.00
2023-03-06T05:05:22.082Z,514.00
2023-03-06T05:09:22.110Z,515.00
2023-03-06T05:13:22.099Z,515.00
2023-03-06T05:17:22.105Z,514.00
2023-03-06T05:21:22.132Z,516.00
2023-03-06T05:25:22.160Z,517.00
2023-03-06T05:29:22.174Z,522.00
2023-03-06T05:33:22.182Z,520.00
2023-03-06T05:37:22.192Z,518.00
2023-03-06T05:41:22.250Z,520.00
2023-03-06T05:45:22.294Z,519.00
2023-03-06T05:49:22.303Z,522.00
2023-03-06T05:53:22.344Z,520.00
2023-03-06T05:57:22.364Z,519.00
2023-03-06T06:01:22.348Z,520.00
2023-03-06T06:05:22.385Z,522.00
2023-03-06T06:09:22.426Z,528.00
2023-03-06T06:13:22.356Z,541.00
2023-03-06T06:17:22.372Z,551.00
2023-03-06T06:21:22.347Z,551.00
2023-03-06T06:25:22.352Z,573.00
2023-03-06T06:29:22.306Z,584.00
2023-03-06T06:33:22.282Z,595.00
2023-03-06T06:37:22.292Z,607.00
2023-03-06T06:45:23.234Z,623.00
2023-03-06T06:49:22.598Z,614.00
2023-03-06T06:53:22.588Z,624.00
2023-03-06T06:57:22.611Z,591.00
2023-03-06T07:01:22.738Z,654.00
2023-03-06T07:05:23.084Z,763.00
2023-03-06T07:09:23.135Z,850.00
2023-03-06T07:13:23.073Z,921.00
2023-03-06T07:17:23.071Z,979.00
2023-03-06T07:21:23.037Z,1027.00
2023-03-06T07:25:23.034Z,1080.00
2023-03-06T07:29:23.116Z,1128.00
2023-03-06T07:33:22.931Z,1159.00
2023-03-06T07:37:23.090Z,1238.00
2023-03-06T07:41:22.886Z,1247.00
2023-03-06T07:45:23.089Z,1259.00
2023-03-06T07:49:22.780Z,1259.00
2023-03-06T07:53:23.087Z,1289.00
2023-03-06T07:57:23.116Z,1321.00
2023-03-06T08:01:22.655Z,1351.00
2023-03-06T08:05:22.619Z,1384.00
2023-03-06T08:09:22.611Z,1395.00
2023-03-06T08:13:22.623Z,1681.00
2023-03-06T08:17:22.551Z,1455.00
2023-03-06T08:21:22.484Z,1430.00
2023-03-06T08:25:22.614Z,1429.00
2023-03-06T08:29:22.424Z,1443.00
2023-03-06T08:33:22.389Z,1448.00
2023-03-06T08:37:22.442Z,1436.00
2023-03-06T08:41:22.641Z,1427.00
2023-03-06T08:45:22.646Z,1408.00
2023-03-06T08:49:23.160Z,1355.00
2023-03-06T08:53:30.440Z,1005.00
2023-03-06T08:57:23.448Z,916.00
2023-03-06T09:01:22.632Z,966.00
2023-03-06T09:05:22.381Z,958.00
2023-03-06T09:09:22.485Z,967.00
2023-03-06T09:13:22.546Z,978.00
2023-03-06T09:17:22.712Z,986.00
2023-03-06T09:21:23.148Z,983.00
2023-03-06T09:25:22.963Z,983.00
2023-03-06T09:29:22.985Z,997.00
2023-03-06T09:33:23.030Z,1002.00
2023-03-06T09:37:23.133Z,995.00
2023-03-06T09:41:23.678Z,1060.00
2023-03-06T09:45:23.262Z,1178.00
2023-03-06T09:49:23.650Z,1466.00
2023-03-06T09:53:23.629Z,1482.00
2023-03-06T09:57:23.641Z,1509.00
2023-03-06T10:01:23.335Z,1505.00
2023-03-06T10:05:23.364Z,1395.00
2023-03-06T10:09:23.669Z,1384.00
2023-03-06T10:13:23.347Z,1395.00
2023-03-06T10:17:23.333Z,1424.00
2023-03-06T10:21:23.684Z,1417.00
2023-03-06T10:25:23.315Z,1438.00
2023-03-06T10:29:23.659Z,1426.00
2023-03-06T10:33:23.275Z,1446.00
2023-03-06T10:37:23.214Z,1437.00
2023-03-06T10:41:23.702Z,1443.00
2023-03-06T10:45:23.733Z,1454.00
2023-03-06T10:49:23.686Z,1433.00
2023-03-06T10:53:23.701Z,1451.00
2023-03-06T10:57:23.691Z,1432.00
2023-03-06T11:01:23.786Z,1417.00
2023-03-06T11:05:23.589Z,1450.00
2023-03-06T11:09:23.589Z,1431.00
2023-03-06T11:13:23.545Z,1433.00
2023-03-06T11:17:23.511Z,1362.00
2023-03-06T11:21:23.686Z,1424.00
2023-03-06T11:25:23.432Z,1439.00
2023-03-06T11:29:23.460Z,1440.00
2023-03-06T11:33:23.352Z,1471.00
2023-03-06T11:37:23.677Z,1418.00
2023-03-06T11:41:23.740Z,1481.00
2023-03-06T11:45:24.186Z,1406.00
2023-03-06T11:49:24.139Z,1339.00
2023-03-06T11:53:24.122Z,1248.00
2023-03-06T11:57:24.061Z,1152.00
2023-03-06T12:01:24.048Z,1040.00
2023-03-06T12:05:24.163Z,971.00
2023-03-06T12:09:23.953Z,913.00
2023-03-06T12:17:24.221Z,662.00
2023-03-06T12:21:23.933Z,643.00
2023-03-06T12:25:23.838Z,638.00
2023-03-06T12:29:24.220Z,633.00
2023-03-06T12:33:23.749Z,622.00
2023-03-06T12:37:24.225Z,646.00
2023-03-06T12:41:23.705Z,562.00
2023-03-06T12:45:23.655Z,528.00
2023-03-06T12:49:32.019Z,647.00
2023-03-06T12:53:24.572Z,781.00
2023-03-06T12:57:23.524Z,1116.00
2023-03-06T13:01:23.562Z,857.00
2023-03-06T13:05:23.472Z,1005.00
2023-03-06T13:09:23.434Z,1101.00
2023-03-06T13:13:23.407Z,1059.00
2023-03-06T13:17:23.753Z,1045.00
2023-03-06T13:21:23.306Z,818.00
2023-03-06T13:25:23.380Z,626.00
2023-03-06T13:29:23.279Z,567.00
2023-03-06T13:33:23.248Z,500.00
2023-03-06T13:37:23.302Z,515.00
2023-03-06T13:41:23.276Z,498.00
2023-03-06T13:45:23.362Z,516.00
2023-03-06T13:49:23.453Z,524.00
2023-03-06T13:53:23.607Z,550.00
2023-03-06T13:57:23.758Z,501.00
2023-03-06T14:01:23.945Z,536.00
2023-03-06T14:05:24.027Z,534.00
2023-03-06T14:09:24.198Z,525.00
2023-03-06T14:13:25.529Z,500.00
2023-03-06T14:17:24.525Z,570.00
2023-03-06T14:21:24.760Z,597.00
2023-03-06T14:25:24.956Z,522.00
2023-03-06T14:29:24.956Z,550.00
2023-03-06T14:33:24.881Z,535.00
2023-03-06T14:37:24.856Z,520.00
2023-03-06T14:41:24.841Z,533.00
2023-03-06T14:45:24.871Z,520.00
2023-03-06T14:49:24.724Z,523.00
2023-03-06T14:53:24.704Z,540.00
2023-03-06T14:57:24.653Z,576.00
2023-03-06T15:01:24.691Z,546.00
2023-03-06T15:05:24.600Z,576.00
2023-03-06T15:09:24.774Z,546.00
2023-03-06T15:13:24.500Z,566.00
2023-03-06T15:17:24.515Z,633.00
2023-03-06T15:21:26.409Z,617.00
2023-03-06T15:25:24.379Z,645.00
2023-03-06T15:29:24.389Z,630.00
2023-03-06T15:33:24.317Z,626.00
2023-03-06T15:37:24.303Z,665.00
2023-03-06T15:41:24.248Z,529.00
2023-03-06T15:45:24.250Z,574.00
2023-03-06T15:49:24.143Z,567.00
2023-03-06T15:53:24.111Z,559.00
2023-03-06T15:57:24.208Z,559.00
2023-03-06T16:01:24.325Z,549.00
2023-03-06T16:05:24.410Z,593.00
2023-03-06T16:09:24.504Z,598.00
2023-03-06T16:13:24.606Z,557.00
2023-03-06T16:17:24.699Z,544.00
2023-03-06T16:21:24.793Z,538.00
2023-03-06T16:25:24.912Z,557.00
2023-03-06T16:29:25.070Z,532.00
2023-03-06T16:33:25.222Z,518.00
2023-03-06T16:37:25.431Z,527.00
2023-03-06T16:41:25.596Z,524.00
2023-03-06T16:45:25.755Z,576.00
2023-03-06T16:49:25.977Z,549.00
2023-03-06T16:53:26.165Z,544.00
2023-03-06T16:57:26.328Z,541.00
2023-03-06T17:01:26.854Z,547.00
2023-03-06T17:05:26.706Z,533.00
2023-03-06T17:09:26.925Z,515.00
2023-03-06T17:13:26.861Z,511.00
2023-03-06T17:17:26.848Z,502.00
2023-03-06T17:21:26.799Z,560.00
2023-03-06T17:25:26.777Z,536.00
2023-03-06T17:29:26.720Z,524.00
2023-03-06T17:33:26.717Z,560.00
2023-03-06T17:37:26.703Z,577.00
2023-03-06T17:41:26.653Z,591.00
2023-03-06T17:45:26.570Z,580.00
2023-03-06T17:49:26.561Z,537.00
2023-03-06T17:53:26.491Z,514.00
2023-03-06T17:57:26.568Z,515.00
2023-03-06T18:01:26.430Z,496.00
2023-03-06T18:05:26.428Z,500.00
2023-03-06T18:09:26.458Z,541.00
2023-03-06T18:13:26.476Z,505.00
2023-03-06T18:17:26.507Z,500.00
2023-03-06T18:21:26.570Z,500.00
2023-03-06T18:25:26.616Z,510.00
2023-03-06T18:29:26.698Z,502.00
2023-03-06T18:33:26.780Z,523.00
2023-03-06T18:37:26.877Z,549.00
2023-03-06T18:41:26.971Z,539.00
2023-03-06T18:45:27.137Z,547.00
2023-03-06T18:49:27.274Z,553.00
2023-03-06T18:53:27.393Z,537.00
2023-03-06T18:57:30.138Z,518.00
2023-03-06T19:01:27.590Z,501.00
2023-03-06T19:05:27.516Z,517.00
2023-03-06T19:09:27.487Z,552.00
2023-03-06T19:13:27.445Z,527.00
2023-03-06T19:17:27.421Z,505.00
2023-03-06T19:21:27.398Z,496.00
2023-03-06T19:25:27.364Z,498.00
2023-03-06T19:29:27.293Z,661.00
2023-03-06T19:33:27.281Z,621.00
2023-03-06T19:37:27.212Z,584.00
2023-03-06T19:41:27.408Z,554.00
2023-03-06T19:45:27.345Z,531.00
2023-03-06T19:49:27.354Z,663.00
2023-03-06T19:53:27.291Z,570.00
2023-03-06T19:57:27.281Z,526.00
2023-03-06T20:01:27.266Z,500.00
2023-03-06T20:05:27.219Z,533.00
2023-03-06T20:09:27.170Z,525.00
2023-03-06T20:13:27.112Z,547.00
2023-03-06T20:17:27.098Z,521.00
2023-03-06T20:21:27.070Z,500.00
2023-03-06T20:25:26.985Z,515.00
2023-03-06T20:29:28.423Z,521.00
2023-03-06T20:33:26.933Z,503.00
2023-03-06T20:37:26.871Z,500.00
2023-03-06T20:41:26.855Z,500.00
2023-03-06T20:45:26.792Z,589.00
2023-03-06T20:49:27.370Z,587.00
2023-03-06T20:53:26.706Z,573.00
2023-03-06T20:57:26.712Z,547.00
2023-03-06T21:01:26.711Z,574.00
2023-03-06T21:05:26.596Z,569.00
2023-03-06T21:09:26.589Z,582.00
2023-03-06T21:13:26.554Z,579.00
2023-03-06T21:17:26.504Z,594.00
2023-03-06T21:21:26.466Z,570.00
2023-03-06T21:25:26.411Z,566.00
2023-03-06T21:29:26.488Z,564.00
2023-03-06T21:33:26.640Z,508.00
2023-03-06T21:37:26.635Z,500.00
2023-03-06T21:41:26.725Z,500.00
2023-03-06T21:45:28.041Z,516.00
2023-03-06T21:49:26.875Z,549.00
2023-03-06T21:53:26.962Z,560.00
2023-03-06T21:57:27.046Z,578.00
2023-03-06T22:01:27.166Z,591.00
2023-03-06T22:05:27.211Z,605.00
2023-03-06T22:09:27.324Z,659.00
2023-03-06T22:13:27.459Z,827.00
2023-03-06T22:17:27.587Z,826.00
2023-03-06T22:21:27.719Z,862.00
2023-03-06T22:25:27.830Z,794.00
2023-03-06T22:29:28.015Z,809.00
2023-03-06T22:33:28.150Z,841.00
2023-03-06T22:37:28.345Z,847.00
2023-03-06T22:41:28.541Z,892.00
2023-03-06T22:45:28.744Z,888.00
2023-03-06T22:49:28.922Z,845.00
2023-03-06T22:53:29.102Z,854.00
2023-03-06T22:57:29.379Z,812.00
2023-03-06T23:01:29.653Z,835.00
2023-03-06T23:05:29.802Z,831.00
2023-03-06T23:09:29.747Z,856.00
2023-03-06T23:13:29.696Z,843.00
2023-03-06T23:17:29.688Z,834.00
2023-03-06T23:21:29.647Z,895.00
2023-03-06T23:25:29.595Z,858.00
2023-03-06T23:29:29.573Z,859.00
2023-03-06T23:33:29.524Z,967.00
2023-03-06T23:37:29.485Z,1033.00
2023-03-06T23:41:29.394Z,1087.00
2023-03-06T23:45:29.378Z,1133.00
2023-03-06T23:49:29.458Z,1052.00
2023-03-06T23:53:29.446Z,1036.00
2023-03-06T23:57:29.427Z,1017.00
